Time;durP1;ratioP1;P1;durP2;ratioP2;P2;SDS_P1;SDS_P2;PMS_P1;PMS_P2;Temp;Humidity;BMP_temperature;BMP_pressure;BME280_temperature;BME280_humidity;BME280_pressure;Samples;Min_cycle;Max_cycle;Signal;HPM_P1;HPM_P2
2021/07/01 00:00:55;;;;;;;8.63;4.80;;;666.10;1305.60;;;;;;5070106;28;20029;-58
2021/07/01 00:03:21;;;;;;;8.77;4.15;;;666.30;1280.00;;;;;;5069970;28;20021;-57
2021/07/01 00:05:46;;;;;;;13.00;4.88;;;666.00;1305.60;;;;;;5070138;28;20040;-58
2021/07/01 00:08:12;;;;;;;9.43;4.18;;;666.00;1305.60;;;;;;5070285;28;20020;-58
2021/07/01 00:10:38;;;;;;;10.23;4.10;;;;;;;;;;5070055;28;20371;-59
2021/07/01 00:13:04;;;;;;;10.82;4.30;;;666.30;1228.80;;;;;;5069734;28;20489;-57
2021/07/01 00:15:32;;;;;;;7.72;4.38;;;666.20;1228.80;;;;;;5070237;28;20033;-56
2021/07/01 00:17:59;;;;;;;7.50;4.82;;;666.10;1228.80;;;;;;5069825;28;20457;-59
2021/07/01 00:20:25;;;;;;;9.55;4.60;;;666.00;1228.80;;;;;;5069906;28;20028;-57
2021/07/01 00:22:52;;;;;;;8.85;4.25;;;666.00;1228.80;;;;;;5069854;28;20050;-58
2021/07/01 00:25:20;;;;;;;8.95;4.18;;;666.00;1228.80;;;;;;5069843;28;20049;-57
2021/07/01 00:27:46;;;;;;;9.70;4.05;;;665.90;1228.80;;;;;;5069726;28;20017;-58
2021/07/01 00:30:14;;;;;;;8.35;3.50;;;665.90;1228.80;;;;;;5071610;28;20382;-57
2021/07/01 00:32:41;;;;;;;10.40;4.07;;;665.90;1228.80;;;;;;5074133;28;20029;-57
2021/07/01 00:35:08;;;;;;;11.35;3.58;;;665.90;1228.80;;;;;;5073792;28;20509;-57
2021/07/01 00:37:33;;;;;;;5.75;3.40;;;665.90;1203.20;;;;;;5073830;28;20445;-57
2021/07/01 00:40:00;;;;;;;19.55;4.63;;;665.90;1228.80;;;;;;5074100;28;20104;-57
2021/07/01 00:42:27;;;;;;;12.65;4.97;;;665.90;1228.80;;;;;;5073594;28;20024;-57
2021/07/01 00:44:53;;;;;;;11.90;5.85;;;640.90;1331.20;;;;;;5073851;28;20041;-56
2021/07/01 00:47:19;;;;;;;19.73;6.82;;;640.10;1433.60;;;;;;5073931;28;20025;-57
2021/07/01 00:49:44;;;;;;;12.98;5.07;;;640.00;1433.60;;;;;;5073583;28;20031;-56
2021/07/01 00:52:11;;;;;;;16.75;5.68;;;615.20;1459.20;;;;;;5073664;28;20035;-56
2021/07/01 00:54:38;;;;;;;13.52;5.65;;;615.20;1433.60;;;;;;5073369;28;20040;-56
2021/07/01 00:57:08;;;;;;;9.15;4.90;;;640.00;1433.60;;;;;;5073558;28;20474;-57
2021/07/01 00:59:34;;;;;;;10.52;5.45;;;640.00;1433.60;;;;;;5073511;28;20463;-57
2021/07/01 01:02:00;;;;;;;9.70;4.88;;;640.00;1459.20;;;;;;5073776;28;20028;-57
2021/07/01 01:04:26;;;;;;;11.70;5.70;;;640.00;1459.20;;;;;;5073077;28;20130;-57
2021/07/01 01:06:51;;;;;;;9.75;5.00;;;640.00;1382.40;;;;;;5073605;28;20082;-57
2021/07/01 01:09:17;;;;;;;12.55;5.43;;;640.00;1382.40;;;;;;5073197;28;20028;-58
2021/07/01 01:11:43;;;;;;;13.57;5.60;;;640.00;1382.40;;;;;;5073426;28;20028;-59
2021/07/01 01:14:08;;;;;;;11.43;4.60;;;640.10;1408.00;;;;;;5073362;28;20363;-57
2021/07/01 01:16:35;;;;;;;10.07;4.90;;;640.10;1382.40;;;;;;5073338;28;20060;-57
2021/07/01 01:19:00;;;;;;;10.30;4.65;;;640.10;1382.40;;;;;;5073496;28;20040;-57
2021/07/01 01:21:29;;;;;;;10.60;4.82;;;640.20;1356.80;;;;;;5073034;28;20386;-57
2021/07/01 01:23:56;;;;;;;9.82;5.78;;;640.10;1382.40;;;;;;5072743;28;20072;-58
2021/07/01 01:26:22;;;;;;;11.73;5.53;;;640.10;1382.40;;;;;;5073110;28;20073;-56
2021/07/01 01:28:49;;;;;;;12.27;5.90;;;640.10;1408.00;;;;;;5072845;28;20025;-58
2021/07/01 01:31:15;;;;;;;11.98;5.65;;;640.10;1433.60;;;;;;5072909;28;20025;-57
2021/07/01 01:33:41;;;;;;;9.73;4.78;;;640.10;1408.00;;;;;;5072937;28;20355;-62
2021/07/01 01:36:07;;;;;;;13.93;5.03;;;640.10;1433.60;;;;;;5072891;28;20025;-57
2021/07/01 01:38:33;;;;;;;11.93;5.07;;;640.00;1433.60;;;;;;5073203;28;20025;-57
2021/07/01 01:40:59;;;;;;;13.88;5.72;;;640.00;1408.00;;;;;;5072728;28;20031;-56
2021/07/01 01:43:24;;;;;;;11.45;6.25;;;640.00;1382.40;;;;;;5072005;28;20025;-57
2021/07/01 01:45:51;;;;;;;10.43;5.70;;;640.00;1382.40;;;;;;5072727;28;20379;-56
2021/07/01 01:48:17;;;;;;;16.35;6.15;;;640.10;1382.40;;;;;;5072447;28;20021;-57
2021/07/01 01:50:43;;;;;;;17.75;6.30;;;640.10;1408.00;;;;;;5072668;28;20107;-57
2021/07/01 01:53:10;;;;;;;9.73;5.57;;;615.30;1382.40;;;;;;5072198;28;20108;-58
2021/07/01 01:55:37;;;;;;;13.88;4.80;;;615.30;1382.40;;;;;;5072385;28;20020;-61
2021/07/01 01:58:03;;;;;;;16.08;6.20;;;615.30;1382.40;;;;;;5072555;28;20108;-59
2021/07/01 02:00:30;;;;;;;11.10;5.72;;;615.20;1382.40;;;;;;5072657;28;20020;-59
2021/07/01 02:02:57;;;;;;;12.60;5.35;;;615.20;1408.00;;;;;;5072160;28;20024;-57
2021/07/01 02:05:23;;;;;;;15.82;5.28;;;615.10;1484.80;;;;;;5072582;28;20029;-57
2021/07/01 02:07:49;;;;;;;9.80;4.20;;;615.10;1484.80;;;;;;5072289;28;20023;-65
2021/07/01 02:10:18;;;;;;;10.60;5.38;;;614.80;1587.20;;;;;;5072324;28;20055;-60
2021/07/01 02:12:43;;;;;;;13.40;5.60;;;614.50;1638.40;;;;;;5072195;28;20047;-58
2021/07/01 02:15:13;;;;;;;18.73;6.03;;;614.60;1715.20;;;;;;5072323;28;20458;-61
2021/07/01 02:17:40;;;;;;;12.80;5.05;;;614.40;1740.80;;;;;;5072189;28;20028;-62
2021/07/01 02:20:11;;;;;;;15.82;6.55;;;589.30;1817.60;;;;;;5072030;28;20029;-65
2021/07/01 02:22:37;;;;;;;12.77;5.07;;;589.10;1868.80;;;;;;5071690;28;20390;-65
2021/07/01 02:25:04;;;;;;;12.73;5.00;;;589.20;1817.60;;;;;;5071830;28;20059;-58
2021/07/01 02:27:30;;;;;;;10.75;4.93;;;589.50;1817.60;;;;;;5072011;28;20044;-57
2021/07/01 02:29:56;;;;;;;12.48;4.47;;;589.50;1894.40;;;;;;5072077;28;20498;-57
2021/07/01 02:32:22;;;;;;;9.82;4.45;;;589.20;1920.00;;;;;;5072106;28;20472;-58
2021/07/01 02:34:49;;;;;;;8.80;5.15;;;588.90;1920.00;;;;;;5071623;28;20032;-59
2021/07/01 02:37:15;;;;;;;13.70;4.07;;;563.70;2048.00;;;;;;5071580;28;20020;-59
2021/07/01 02:39:41;;;;;;;10.13;5.40;;;563.50;2048.00;;;;;;5071630;28;20024;-64
2021/07/01 02:42:07;;;;;;;11.27;6.28;;;563.50;2176.00;;;;;;5071403;28;20028;-61
2021/07/01 02:44:34;;;;;;;13.15;6.47;;;538.50;2329.60;;;;;;5071467;28;20072;-65
2021/07/01 02:47:00;;;;;;;23.95;6.28;;;538.50;2380.80;;;;;;5071541;28;20024;-57
2021/07/01 02:49:25;;;;;;;13.43;4.75;;;538.50;2406.40;;;;;;5071266;28;20103;-58
2021/07/01 02:51:52;;;;;;;9.43;5.22;;;563.20;2432.00;;;;;;5071337;28;20044;-60
2021/07/01 02:54:19;;;;;;;9.88;4.07;;;538.30;2406.40;;;;;;5070029;28;20040;-60
2021/07/01 02:56:46;;;;;;;9.93;4.72;;;538.30;2380.80;;;;;;5053492;28;20025;-59
2021/07/01 02:59:15;;;;;;;12.50;4.75;;;538.50;2278.40;;;;;;5071330;28;20081;-57
2021/07/01 03:01:44;;;;;;;9.25;4.90;;;563.30;2304.00;;;;;;5071431;28;20028;-57
2021/07/01 03:04:10;;;;;;;7.72;4.28;;;563.40;2329.60;;;;;;5071193;28;20032;-58
2021/07/01 03:06:37;;;;;;;12.32;4.90;;;563.40;2304.00;;;;;;5071095;28;20391;-58
2021/07/01 03:09:04;;;;;;;10.45;5.18;;;563.40;2329.60;;;;;;5071405;28;20089;-60
2021/07/01 03:11:30;;;;;;;9.18;4.45;;;563.50;2278.40;;;;;;5071446;28;20378;-56
2021/07/01 03:13:56;;;;;;;9.75;4.82;;;563.50;2329.60;;;;;;5070908;28;20024;-60
2021/07/01 03:16:22;;;;;;;10.18;4.53;;;563.40;2304.00;;;;;;5071295;28;20110;-60
2021/07/01 03:18:48;;;;;;;11.98;4.82;;;563.40;2329.60;;;;;;5070913;28;20122;-58
2021/07/01 03:21:14;;;;;;;8.15;4.47;;;563.30;2380.80;;;;;;5070859;28;20123;-59
2021/07/01 03:23:40;;;;;;;8.45;4.25;;;563.30;2406.40;;;;;;5070592;28;20048;-57
2021/07/01 03:26:07;;;;;;;9.60;4.88;;;538.50;2380.80;;;;;;5070677;28;20887;-58
2021/07/01 03:28:32;;;;;;;6.43;4.53;;;538.50;2406.40;;;;;;5070908;28;20020;-58
2021/07/01 03:30:58;;;;;;;12.38;4.38;;;538.50;2406.40;;;;;;5070914;28;20031;-61
2021/07/01 03:33:24;;;;;;;8.35;4.35;;;538.40;2406.40;;;;;;5070416;28;20047;-58
2021/07/01 03:35:49;;;;;;;7.53;4.55;;;538.10;2406.40;;;;;;5070499;28;20028;-60
2021/07/01 03:38:15;;;;;;;8.20;4.18;;;537.90;2406.40;;;;;;5070376;28;20078;-57
2021/07/01 03:40:41;;;;;;;8.93;4.38;;;537.80;2406.40;;;;;;5070706;28;20133;-60
2021/07/01 03:43:07;;;;;;;13.85;4.65;;;537.90;2406.40;;;;;;5070224;28;20116;-58
2021/07/01 03:45:32;;;;;;;7.28;4.22;;;537.80;2406.40;;;;;;5070839;28;20552;-59
2021/07/01 03:47:58;;;;;;;9.98;4.65;;;537.70;2406.40;;;;;;5070121;28;20020;-59
2021/07/01 03:50:24;;;;;;;9.32;4.85;;;537.80;2406.40;;;;;;5070388;28;20028;-61
2021/07/01 03:52:50;;;;;;;6.32;4.00;;;537.80;2406.40;;;;;;5070196;28;20517;-56
2021/07/01 03:55:18;;;;;;;7.85;4.10;;;537.80;2406.40;;;;;;5069289;28;20043;-59
2021/07/01 03:57:45;;;;;;;7.63;4.60;;;537.80;2406.40;;;;;;5069785;28;20125;-58
2021/07/01 04:00:11;;;;;;;8.82;3.65;;;537.80;2406.40;;;;;;5070697;28;20082;-57
2021/07/01 04:02:37;;;;;;;7.38;3.92;;;538.10;2406.40;;;;;;5070386;28;20051;-60
2021/07/01 04:05:04;;;;;;;8.48;4.40;;;538.30;2406.40;;;;;;5070265;28;20474;-58
2021/07/01 04:07:30;;;;;;;5.80;4.05;;;538.40;2380.80;;;;;;5070159;28;20020;-59
2021/07/01 04:09:55;;;;;;;11.60;4.32;;;538.50;2329.60;;;;;;5070052;28;20098;-59
2021/07/01 04:12:21;;;;;;;8.05;3.47;;;563.30;2380.80;;;;;;5069498;28;20045;-58
2021/07/01 04:14:47;;;;;;;7.20;3.88;;;563.50;2380.80;;;;;;5070084;28;20047;-58
2021/07/01 04:17:12;;;;;;;11.00;4.32;;;563.70;2329.60;;;;;;5069739;28;20063;-58
2021/07/01 04:19:38;;;;;;;6.93;3.65;;;563.80;2329.60;;;;;;5070095;28;20033;-57
2021/07/01 04:22:04;;;;;;;7.90;4.20;;;563.70;2355.20;;;;;;5070224;28;20039;-58
2021/07/01 04:24:30;;;;;;;10.93;3.80;;;563.60;2406.40;;;;;;5069985;28;20053;-58
2021/07/01 04:26:56;;;;;;;6.50;4.00;;;564.00;2304.00;;;;;;5069989;28;20088;-59
2021/07/01 04:29:22;;;;;;;6.03;4.70;;;588.90;2329.60;;;;;;5070044;28;20463;-58
2021/07/01 04:31:48;;;;;;;12.45;5.13;;;588.80;2355.20;;;;;;5069711;28;20029;-59
2021/07/01 04:34:14;;;;;;;7.85;4.63;;;588.90;2380.80;;;;;;5069783;28;20029;-59
2021/07/01 04:36:39;;;;;;;8.60;5.10;;;589.70;2304.00;;;;;;5069808;28;20032;-58
2021/07/01 04:39:07;;;;;;;9.27;4.13;;;640.40;2073.60;;;;;;5069859;28;20020;-57
2021/07/01 04:41:32;;;;;;;8.50;4.00;;;640.60;1996.80;;;;;;5070161;28;20070;-58
2021/07/01 04:43:58;;;;;;;6.88;3.83;;;640.10;1971.20;;;;;;5069667;28;20421;-58
2021/07/01 04:46:24;;;;;;;11.35;3.55;;;615.00;1996.80;;;;;;5069594;28;20025;-57
2021/07/01 04:48:51;;;;;;;9.20;4.25;;;614.90;1996.80;;;;;;5069777;28;20020;-58
2021/07/01 04:51:17;;;;;;;12.57;4.10;;;615.30;1996.80;;;;;;5069486;28;20031;-60
2021/07/01 04:53:43;;;;;;;10.65;4.88;;;716.90;1740.80;;;;;;5069728;28;20025;-61
2021/07/01 04:56:09;;;;;;;9.82;4.97;;;768.30;1561.60;;;;;;5069896;28;20363;-59
2021/07/01 04:58:35;;;;;;;6.60;4.20;;;819.20;1459.20;;;;;;5069672;28;20025;-59
2021/07/01 05:01:00;;;;;;;20.85;4.78;;;819.60;1433.60;;;;;;5069878;28;20023;-59
2021/07/01 05:03:26;;;;;;;6.90;5.43;;;845.00;1331.20;;;;;;5069573;28;20016;-56
2021/07/01 05:05:53;;;;;;;6.97;6.05;;;845.70;1305.60;;;;;;5069844;28;20029;-60
2021/07/01 05:08:19;;;;;;;6.53;4.70;;;871.30;1203.20;;;;;;5051818;28;20059;-58
2021/07/01 05:10:45;;;;;;;6.72;6.03;;;870.90;1203.20;;;;;;5069660;28;20016;-59
2021/07/01 05:13:11;;;;;;;12.98;5.68;;;845.70;1228.80;;;;;;5069731;28;20047;-60
2021/07/01 05:15:37;;;;;;;5.95;3.53;;;794.40;1356.80;;;;;;5069642;28;20388;-63
2021/07/01 05:18:03;;;;;;;17.38;4.30;;;768.30;1459.20;;;;;;5072492;28;20029;-61
2021/07/01 05:20:29;;;;;;;9.43;3.75;;;742.40;1536.00;;;;;;5073323;28;20027;-59
2021/07/01 05:22:55;;;;;;;6.40;3.78;;;717.30;1587.20;;;;;;5073060;28;20024;-60
2021/07/01 05:25:21;;;;;;;7.07;3.92;;;692.00;1638.40;;;;;;5072893;28;20052;-58
2021/07/01 05:27:47;;;;;;;8.18;3.90;;;691.70;1715.20;;;;;;5072911;28;20029;-61
2021/07/01 05:30:13;;;;;;;10.15;4.18;;;691.40;1792.00;;;;;;5073026;28;20422;-59
2021/07/01 05:32:39;;;;;;;11.13;4.00;;;666.40;1817.60;;;;;;5073042;28;20029;-61
2021/07/01 05:35:05;;;;;;;11.25;4.93;;;666.40;1843.20;;;;;;5072784;28;20029;-57
2021/07/01 05:37:31;;;;;;;9.13;4.32;;;691.30;1843.20;;;;;;5072917;28;20020;-58
2021/07/01 05:39:57;;;;;;;6.78;3.80;;;691.60;1792.00;;;;;;5072517;28;20119;-57
2021/07/01 05:42:23;;;;;;;7.65;5.75;;;717.60;1689.60;;;;;;5072753;28;20025;-57
2021/07/01 05:44:48;;;;;;;9.90;4.50;;;743.00;1638.40;;;;;;5072718;28;20166;-64
2021/07/01 05:47:14;;;;;;;9.20;7.40;;;793.90;1510.40;;;;;;5072475;28;20025;-64
2021/07/01 05:49:40;;;;;;;10.07;7.63;;;845.60;1356.80;;;;;;5072655;28;20038;-67
2021/07/01 05:52:07;;;;;;;8.43;7.82;;;947.30;1126.40;;;;;;5072488;28;20095;-69
2021/07/01 05:54:38;;;;;;;8.43;7.15;;;998.70;1049.60;;;;;;5072498;28;20024;-66
2021/07/01 05:57:05;;;;;;;9.07;8.27;;;1050.00;972.80;;;;;;5072357;28;20055;-65
2021/07/01 05:59:31;;;;;;;10.13;9.27;;;1075.80;896.00;;;;;;5072564;28;20466;-67
2021/07/01 06:01:56;;;;;;;9.73;8.90;;;1101.10;896.00;;;;;;5072514;28;20058;-63
2021/07/01 06:04:22;;;;;;;10.70;9.85;;;1076.10;896.00;;;;;;5072473;28;20025;-65
2021/07/01 06:06:50;;;;;;;10.73;9.80;;;1101.10;896.00;;;;;;5072347;28;20104;-60
2021/07/01 06:09:21;;;;;;;10.25;9.30;;;1101.10;896.00;;;;;;5072209;28;20489;-65
2021/07/01 06:11:50;;;;;;;13.85;9.63;;;1126.70;819.20;;;;;;5072211;28;20100;-64
2021/07/01 06:14:18;;;;;;;7.63;5.25;;;1126.80;819.20;;;;;;5072086;28;20036;-66
2021/07/01 06:16:44;;;;;;;9.25;6.55;;;1075.20;896.00;;;;;;5072363;28;20025;-62
2021/07/01 06:19:10;;;;;;;5.65;5.13;;;1024.20;921.60;;;;;;5071964;28;20402;-62
2021/07/01 06:21:36;;;;;;;11.18;10.48;;;999.10;972.80;;;;;;5071883;28;20035;-67
2021/07/01 06:24:02;;;;;;;13.25;12.05;;;1049.90;921.60;;;;;;5071932;28;20059;-67
2021/07/01 06:26:29;;;;;;;11.68;10.95;;;1127.00;844.80;;;;;;5071808;28;20029;-65
2021/07/01 06:28:56;;;;;;;7.55;4.80;;;1152.40;793.60;;;;;;5071541;28;20035;-63
2021/07/01 06:31:23;;;;;;;9.10;8.20;;;1049.60;947.20;;;;;;5072169;28;20021;-64
2021/07/01 06:33:49;;;;;;;11.43;9.68;;;1050.30;947.20;;;;;;5071748;28;20021;-62
2021/07/01 06:36:18;;;;;;;12.73;11.43;;;1024.60;972.80;;;;;;5071831;28;20054;-65
2021/07/01 06:38:48;;;;;;;10.95;8.77;;;1050.20;947.20;;;;;;5071529;28;20105;-62
2021/07/01 06:41:17;;;;;;;6.43;4.80;;;999.10;947.20;;;;;;5071625;28;20490;-63
2021/07/01 06:43:47;;;;;;;10.07;9.15;;;1024.20;896.00;;;;;;5071341;28;20356;-63
2021/07/01 06:46:17;;;;;;;7.75;7.15;;;1049.90;896.00;;;;;;5071875;28;20025;-64
2021/07/01 06:48:46;;;;;;;6.70;5.68;;;999.30;947.20;;;;;;5071570;28;20024;-64
2021/07/01 06:51:12;;;;;;;5.95;4.75;;;1050.30;870.40;;;;;;5071484;28;20021;-64
2021/07/01 06:53:41;;;;;;;10.82;9.98;;;998.40;972.80;;;;;;5071319;28;20054;-62
2021/07/01 06:56:07;;;;;;;6.13;4.22;;;1049.60;921.60;;;;;;5071076;28;20036;-64
2021/07/01 06:58:34;;;;;;;9.52;8.43;;;999.20;921.60;;;;;;5071058;28;20032;-62
2021/07/01 07:01:00;;;;;;;6.18;5.57;;;1075.80;768.00;;;;;;5071595;28;20031;-64
2021/07/01 07:03:26;;;;;;;11.77;10.35;;;1101.30;793.60;;;;;;5071062;28;20025;-64
2021/07/01 07:05:53;;;;;;;10.60;9.88;;;1152.00;768.00;;;;;;5071372;28;20021;-62
2021/07/01 07:08:20;;;;;;;10.60;9.85;;;1152.40;716.80;;;;;;5071218;28;20379;-64
2021/07/01 07:10:47;;;;;;;9.88;9.10;;;1203.60;640.00;;;;;;5070929;28;20454;-64
2021/07/01 07:13:14;;;;;;;5.25;4.55;;;1127.10;742.40;;;;;;5071111;28;20055;-64
2021/07/01 07:15:42;;;;;;;5.63;5.13;;;1024.70;768.00;;;;;;5071190;28;20043;-63
2021/07/01 07:18:37;;;;;;;14.07;12.60;;;1075.90;742.40;;;;;;5070957;28;20021;-64
2021/07/01 07:21:17;;;;;;;27.35;21.77;;;1075.50;742.40;;;;;;4970341;28;20066;-64
2021/07/01 07:23:46;;;;;;;26.80;23.98;;;1049.70;844.80;;;;;;4969766;28;20047;-62
2021/07/01 07:26:18;;;;;;;369.58;330.45;;;999.10;870.40;;;;;;4970096;28;20461;-61
2021/07/01 07:28:48;;;;;;;98.73;88.90;;;998.50;870.40;;;;;;4969772;28;20026;-61
2021/07/01 07:31:22;;;;;;;9.52;6.25;;;973.70;896.00;;;;;;4969729;28;20351;-61
2021/07/01 07:33:48;;;;;;;9.18;6.47;;;999.00;896.00;;;;;;4953447;28;20026;-64
2021/07/01 07:36:18;;;;;;;8.50;7.63;;;998.70;896.00;;;;;;4969761;28;20078;-64
2021/07/01 07:38:44;;;;;;;13.05;11.68;;;1050.00;793.60;;;;;;4969683;28;20034;-61
2021/07/01 07:41:14;;;;;;;9.27;7.25;;;1075.70;742.40;;;;;;4969266;28;20035;-64
2021/07/01 07:43:41;;;;;;;7.80;3.80;;;1050.00;768.00;;;;;;4969694;28;20035;-63
2021/07/01 07:46:08;;;;;;;8.73;7.07;;;998.70;844.80;;;;;;4969437;28;20065;-63
2021/07/01 07:48:33;;;;;;;10.27;6.70;;;998.80;819.20;;;;;;4969601;28;20577;-61
2021/07/01 07:51:02;;;;;;;6.95;6.25;;;1101.10;691.20;;;;;;4969630;28;20038;-63
2021/07/01 07:53:32;;;;;;;7.85;7.30;;;1126.40;691.20;;;;;;4969311;28;20090;-62
2021/07/01 07:56:04;;;;;;;9.05;7.38;;;1126.60;691.20;;;;;;4966439;28;20097;-61
2021/07/01 07:58:32;;;;;;;8.32;7.45;;;1152.20;665.60;;;;;;5063018;28;20479;-61
2021/07/01 08:01:02;;;;;;;79.88;72.63;;;1177.80;614.40;;;;;;5068625;28;20028;-61
2021/07/01 08:03:35;;;;;;;45.47;41.50;;;1203.20;640.00;;;;;;5068478;28;20021;-62
2021/07/01 08:06:05;;;;;;;11.00;6.03;;;1228.90;614.40;;;;;;5068657;28;20040;-62
2021/07/01 08:08:32;;;;;;;5.50;4.78;;;1203.30;614.40;;;;;;5068212;28;20399;-66
2021/07/01 08:10:59;;;;;;;7.47;4.43;;;1127.30;640.00;;;;;;5068414;28;20027;-63
2021/07/01 08:13:27;;;;;;;6.85;5.78;;;1101.30;691.20;;;;;;5068407;28;20370;-64
2021/07/01 08:15:53;;;;;;;11.65;5.97;;;1075.40;716.80;;;;;;5068625;28;20040;-63
2021/07/01 08:18:39;;;;;;;6.47;5.43;;;1050.30;793.60;;;;;;5068424;28;20471;-66
2021/07/01 08:21:06;;;;;;;9.30;4.88;;;1024.20;768.00;;;;;;5068158;28;20024;-61
2021/07/01 08:23:34;;;;;;;6.97;5.43;;;972.80;844.80;;;;;;5068212;28;20024;-65
2021/07/01 08:26:01;;;;;;;5.72;4.45;;;947.70;870.40;;;;;;5068586;28;20544;-62
2021/07/01 08:28:28;;;;;;;9.75;4.80;;;947.50;896.00;;;;;;5068582;28;20459;-61
2021/07/01 08:30:57;;;;;;;5.20;4.68;;;947.20;870.40;;;;;;5068421;28;20466;-63
2021/07/01 08:33:39;;;;;;;6.63;4.05;;;896.90;896.00;;;;;;5068007;28;20035;-61
2021/07/01 08:36:08;;;;;;;7.75;4.55;;;871.30;921.60;;;;;;5068317;28;20116;-61
2021/07/01 08:38:36;;;;;;;8.75;3.60;;;871.30;972.80;;;;;;5068315;28;20522;-63
2021/07/01 08:41:17;;;;;;;9.07;4.20;;;896.10;972.80;;;;;;5068378;28;20149;-62
2021/07/01 08:43:53;;;;;;;7.30;3.97;;;896.50;972.80;;;;;;5068117;28;20502;-63
2021/07/01 08:46:26;;;;;;;9.70;4.35;;;896.20;972.80;;;;;;5067722;28;20016;-61
2021/07/01 08:49:04;;;;;;;7.75;4.88;;;871.30;947.20;;;;;;5067952;28;20021;-62
2021/07/01 08:51:39;;;;;;;11.25;4.25;;;896.00;972.80;;;;;;5070159;28;20029;-61
2021/07/01 08:54:26;;;;;;;5.95;3.50;;;871.10;972.80;;;;;;5071737;28;20619;-60
2021/07/01 08:56:56;;;;;;;7.90;3.65;;;871.10;972.80;;;;;;5073118;28;20479;-60
2021/07/01 08:59:24;;;;;;;6.85;3.53;;;870.70;998.40;;;;;;5056074;28;20463;-61
2021/07/01 09:01:59;;;;;;;8.57;4.35;;;845.70;1024.00;;;;;;5073857;28;20383;-61
2021/07/01 09:04:38;;;;;;;6.32;4.35;;;870.50;1024.00;;;;;;5073229;28;20040;-61
2021/07/01 09:07:05;;;;;;;6.45;3.30;;;870.80;972.80;;;;;;5073707;28;20052;-61
2021/07/01 09:09:35;;;;;;;8.77;4.53;;;870.40;998.40;;;;;;5073436;28;20028;-60
2021/07/01 09:12:05;;;;;;;9.02;3.90;;;870.40;1024.00;;;;;;5073490;28;20031;-61
2021/07/01 09:14:31;;;;;;;9.05;3.95;;;844.80;1049.60;;;;;;5073266;28;20037;-60
2021/07/01 09:17:01;;;;;;;6.82;5.43;;;845.10;1075.20;;;;;;5073023;28;20047;-60
2021/07/01 09:19:27;;;;;;;7.55;3.92;;;845.40;1075.20;;;;;;5072991;28;20380;-61
2021/07/01 09:21:54;;;;;;;7.55;4.05;;;870.50;1075.20;;;;;;5073131;28;20119;-61
2021/07/01 09:24:20;;;;;;;6.50;4.28;;;845.10;1049.60;;;;;;5072958;28;20102;-60
2021/07/01 09:26:48;;;;;;;8.10;3.95;;;845.10;1075.20;;;;;;5073162;28;20046;-61
2021/07/01 09:29:15;;;;;;;7.70;3.88;;;845.50;1075.20;;;;;;5072960;28;20493;-61
2021/07/01 09:31:42;;;;;;;7.25;3.63;;;845.70;1049.60;;;;;;5072864;28;20086;-60
2021/07/01 09:34:09;;;;;;;14.90;12.05;;;845.30;1024.00;;;;;;5072885;28;20048;-61
2021/07/01 09:36:35;;;;;;;11.07;5.45;;;870.40;1024.00;;;;;;5073019;28;20016;-61
2021/07/01 09:39:03;;;;;;;7.70;4.03;;;870.70;1049.60;;;;;;5072753;28;20528;-59
2021/07/01 09:41:30;;;;;;;7.22;3.78;;;870.70;998.40;;;;;;5073052;28;20060;-61
2021/07/01 09:43:58;;;;;;;6.30;4.03;;;845.20;1049.60;;;;;;5072474;28;20118;-61
2021/07/01 09:46:28;;;;;;;5.80;4.07;;;845.20;1075.20;;;;;;5072469;28;20032;-59
2021/07/01 09:48:58;;;;;;;7.63;3.90;;;845.40;1049.60;;;;;;5064966;28;20100;-61
2021/07/01 09:51:28;;;;;;;8.23;3.30;;;844.90;1075.20;;;;;;5052697;28;20023;-61
2021/07/01 09:53:54;;;;;;;9.35;4.25;;;844.90;1075.20;;;;;;5062667;28;20029;-59
2021/07/01 09:56:40;;;;;;;6.20;3.65;;;819.90;1100.80;;;;;;5063109;28;20036;-60
2021/07/01 09:59:14;;;;;;;9.20;3.50;;;819.40;1126.40;;;;;;5072200;28;20085;-65
2021/07/01 10:01:40;;;;;;;12.77;11.50;;;819.30;1075.20;;;;;;5072572;28;20025;-69
2021/07/01 10:04:09;;;;;;;7.50;3.35;;;819.30;1100.80;;;;;;5071572;28;20032;-69
2021/07/01 10:06:35;;;;;;;6.03;3.70;;;819.30;1100.80;;;;;;5072425;28;20378;-66
2021/07/01 10:09:02;;;;;;;5.53;3.30;;;819.60;1075.20;;;;;;5072506;28;20021;-65
2021/07/01 10:11:30;;;;;;;7.75;4.18;;;819.70;1100.80;;;;;;5072277;28;20501;-61
2021/07/01 10:13:57;;;;;;;9.55;3.47;;;819.80;1100.80;;;;;;5072069;28;20028;-66
2021/07/01 10:16:28;;;;;;;6.68;3.38;;;819.30;1100.80;;;;;;5072191;28;20020;-65
2021/07/01 10:18:55;;;;;;;6.85;3.55;;;819.30;1100.80;;;;;;5072116;28;20475;-66
2021/07/01 10:21:21;;;;;;;6.25;3.88;;;819.50;1100.80;;;;;;5072170;28;20459;-65
2021/07/01 10:23:49;;;;;;;5.22;3.75;;;819.30;1126.40;;;;;;5071740;28;20128;-65
2021/07/01 10:26:20;;;;;;;7.47;4.20;;;794.20;1126.40;;;;;;5071976;28;20029;-66
2021/07/01 10:29:00;;;;;;;6.88;3.35;;;794.20;1126.40;;;;;;5072035;28;20052;-65
2021/07/01 10:31:44;;;;;;;9.52;3.72;;;794.50;1126.40;;;;;;5069528;28;20024;-65
2021/07/01 10:34:11;;;;;;;11.50;3.80;;;819.40;1152.00;;;;;;5070294;28;20032;-65
2021/07/01 10:36:37;;;;;;;4.55;3.13;;;819.60;1152.00;;;;;;5069917;28;20590;-65
2021/07/01 10:39:03;;;;;;;5.53;3.28;;;819.70;1152.00;;;;;;5070050;28;20138;-65
2021/07/01 10:41:37;;;;;;;9.50;3.45;;;794.40;1126.40;;;;;;5069880;28;20029;-66
2021/07/01 10:44:05;;;;;;;8.82;4.50;;;819.60;1126.40;;;;;;5069583;28;20479;-64
2021/07/01 10:46:37;;;;;;;9.98;4.38;;;819.20;1152.00;;;;;;5069759;28;20029;-65
2021/07/01 10:49:03;;;;;;;7.15;4.10;;;819.40;1126.40;;;;;;5069882;28;20032;-67
2021/07/01 10:51:30;;;;;;;5.90;3.95;;;819.50;1100.80;;;;;;5051792;28;20570;-66
2021/07/01 10:54:10;;;;;;;8.32;4.00;;;819.40;1126.40;;;;;;5069455;28;20040;-66
2021/07/01 10:56:41;;;;;;;8.10;4.00;;;819.20;1152.00;;;;;;5069369;28;20041;-65
2021/07/01 10:59:08;;;;;;;6.22;3.97;;;819.20;1152.00;;;;;;5069616;28;20036;-65
2021/07/01 11:01:36;;;;;;;9.45;3.80;;;819.30;1152.00;;;;;;5069744;28;20019;-66
2021/07/01 11:04:08;;;;;;;8.82;4.05;;;794.50;1152.00;;;;;;5069441;28;20035;-64
2021/07/01 11:06:36;;;;;;;5.17;3.47;;;819.30;1152.00;;;;;;5069385;28;20017;-66
2021/07/01 11:09:04;;;;;;;6.50;3.60;;;794.30;1126.40;;;;;;5069688;28;20090;-66
2021/07/01 11:11:33;;;;;;;8.38;4.43;;;794.50;1152.00;;;;;;5051049;28;20479;-65
2021/07/01 11:14:05;;;;;;;8.25;4.50;;;819.30;1152.00;;;;;;5068960;28;20046;-64
2021/07/01 11:16:43;;;;;;;4.70;3.40;;;819.60;1152.00;;;;;;5069148;28;20032;-64
2021/07/01 11:19:17;;;;;;;15.55;4.18;;;819.60;1152.00;;;;;;5069522;28;20364;-65
2021/07/01 11:21:48;;;;;;;7.13;4.07;;;819.70;1126.40;;;;;;5069433;28;20086;-65
2021/07/01 11:24:23;;;;;;;10.88;4.50;;;819.80;1177.60;;;;;;5068350;28;20455;-65
2021/07/01 11:26:51;;;;;;;9.10;4.15;;;819.60;1126.40;;;;;;5068977;28;20547;-66
2021/07/01 11:29:38;;;;;;;4.40;3.50;;;819.30;1126.40;;;;;;5069000;28;20032;-66
2021/07/01 11:32:21;;;;;;;9.30;4.28;;;794.20;1177.60;;;;;;5068851;28;20025;-66
2021/07/01 11:34:49;;;;;;;6.00;4.35;;;794.20;1152.00;;;;;;5068757;28;20214;-65
2021/07/01 11:37:30;;;;;;;6.35;3.70;;;819.20;1228.80;;;;;;5068415;28;20109;-66
2021/07/01 11:40:09;;;;;;;8.85;4.15;;;819.40;1177.60;;;;;;5068761;28;20032;-66
2021/07/01 11:42:36;;;;;;;5.60;4.00;;;819.30;1177.60;;;;;;5068675;28;20371;-65
2021/07/01 11:45:02;;;;;;;10.63;4.88;;;819.50;1177.60;;;;;;5068789;28;20129;-65
2021/07/01 11:47:30;;;;;;;7.80;3.70;;;819.80;1152.00;;;;;;5068662;28;20056;-66
2021/07/01 11:49:56;;;;;;;8.80;4.72;;;819.40;1177.60;;;;;;5068092;28;20028;-66
2021/07/01 11:52:23;;;;;;;5.70;3.90;;;794.50;1177.60;;;;;;5068513;28;20031;-65
2021/07/01 11:54:48;;;;;;;6.72;3.80;;;819.50;1177.60;;;;;;5070938;28;20044;-66
2021/07/01 11:57:14;;;;;;;10.20;4.10;;;819.60;1177.60;;;;;;5070145;28;20017;-66
2021/07/01 11:59:40;;;;;;;11.90;4.57;;;819.50;1126.40;;;;;;5070285;28;20025;-65
2021/07/01 12:02:07;;;;;;;7.32;4.70;;;819.40;1177.60;;;;;;5069956;28;20050;-65
2021/07/01 12:04:35;;;;;;;10.25;4.25;;;819.30;1177.60;;;;;;5070387;28;20470;-66
2021/07/01 12:07:10;;;;;;;8.57;4.88;;;794.40;1203.20;;;;;;5070400;28;20039;-66
2021/07/01 12:09:41;;;;;;;7.72;4.00;;;794.20;1203.20;;;;;;5070689;28;20024;-65
2021/07/01 12:12:14;;;;;;;6.68;4.53;;;794.10;1203.20;;;;;;5070072;28;20183;-65
2021/07/01 12:14:42;;;;;;;9.45;5.28;;;794.00;1228.80;;;;;;5070215;28;20028;-66
2021/07/01 12:17:08;;;;;;;8.90;4.05;;;794.30;1203.20;;;;;;5070174;28;20024;-64
2021/07/01 12:19:46;;;;;;;8.88;4.18;;;794.40;1228.80;;;;;;5069985;28;20037;-66